createdAt,value
2023-02-01T00:01:00.924Z,99770.36
2023-02-01T00:04:28.779Z,99774.61
2023-02-01T00:07:55.780Z,99776.66
2023-02-01T00:11:23.086Z,99780.59
2023-02-01T00:14:50.204Z,99781.02
2023-02-01T00:18:17.260Z,99777.95
2023-02-01T00:21:45.618Z,99784.48
2023-02-01T00:25:13.150Z,99782.42
2023-02-01T00:28:40.087Z,99784.11
2023-02-01T00:32:07.740Z,99778.41
2023-02-01T00:35:35.724Z,99781.46
2023-02-01T00:39:03.457Z,99780.03
2023-02-01T00:42:31.249Z,99782.60
2023-02-01T00:45:58.240Z,99782.41
2023-02-01T00:49:25.315Z,99788.58
2023-02-01T00:52:53.804Z,99787.65
2023-02-01T00:56:21.490Z,99792.53
2023-02-01T00:59:48.490Z,99791.11
2023-02-01T01:03:19.698Z,99789.52
2023-02-01T01:06:46.672Z,99787.86
2023-02-01T01:10:14.466Z,99797.84
2023-02-01T01:13:42.075Z,99796.74
2023-02-01T01:17:09.313Z,99798.75
2023-02-01T01:20:38.720Z,99796.59
2023-02-01T01:24:06.605Z,99804.41
2023-02-01T01:27:33.940Z,99800.38
2023-02-01T01:31:01.060Z,99806.02
2023-02-01T01:34:28.506Z,99798.69
2023-02-01T01:37:56.111Z,99801.14
2023-02-01T01:41:26.000Z,99796.06
2023-02-01T01:45:06.681Z,99790.30
2023-02-01T01:48:34.687Z,99793.71
2023-02-01T01:52:05.531Z,99789.77
2023-02-01T01:55:39.320Z,99795.42
2023-02-01T01:59:07.676Z,99785.94
2023-02-01T02:02:36.139Z,99787.30
2023-02-01T02:06:14.967Z,99792.44
2023-02-01T02:09:54.639Z,99797.34
2023-02-01T02:13:27.843Z,99790.70
2023-02-01T02:17:07.379Z,99790.51
2023-02-01T02:21:02.118Z,99774.32
2023-02-01T02:25:05.893Z,99781.63
2023-02-01T02:29:06.530Z,99781.73
2023-02-01T02:32:59.884Z,99788.05
2023-02-01T02:36:40.271Z,99787.93
2023-02-01T02:40:15.908Z,99784.56
2023-02-01T02:44:07.378Z,99781.64
2023-02-01T02:47:40.513Z,99776.97
2023-02-01T02:51:29.423Z,99779.11
2023-02-01T02:54:59.534Z,99772.77
2023-02-01T02:58:44.482Z,99771.67
2023-02-01T03:02:29.803Z,99768.09
2023-02-01T03:05:58.099Z,99765.06
2023-02-01T03:09:33.180Z,99768.45
2023-02-01T03:13:07.330Z,99774.57
2023-02-01T03:16:38.659Z,99772.03
2023-02-01T03:20:09.199Z,99772.11
2023-02-01T03:23:40.570Z,99773.20
2023-02-01T03:27:12.027Z,99778.88
2023-02-01T03:30:43.948Z,99773.05
2023-02-01T03:34:12.445Z,99765.70
2023-02-01T03:37:40.824Z,99762.52
2023-02-01T03:41:14.714Z,99759.07
2023-02-01T03:44:48.949Z,99767.02
2023-02-01T03:48:18.950Z,99772.61
2023-02-01T03:51:45.989Z,99774.55
2023-02-01T03:55:15.141Z,99765.38
2023-02-01T03:58:41.092Z,99748.55
2023-02-01T04:02:08.356Z,99749.23
2023-02-01T04:05:35.976Z,99748.21
2023-02-01T04:09:05.611Z,99753.35
2023-02-01T04:12:33.133Z,99756.11
2023-02-01T04:16:00.157Z,99745.20
2023-02-01T04:19:27.535Z,99750.76
2023-02-01T04:22:54.723Z,99744.60
2023-02-01T04:26:22.430Z,99739.98
2023-02-01T04:29:50.672Z,99737.02
2023-02-01T04:33:17.836Z,99744.79
2023-02-01T04:36:47.220Z,99738.34
2023-02-01T04:40:13.755Z,99749.93
2023-02-01T04:43:40.793Z,99753.69
2023-02-01T04:47:08.251Z,99751.45
2023-02-01T04:50:35.843Z,99750.81
2023-02-01T04:54:02.872Z,99746.85
2023-02-01T04:57:30.183Z,99752.20
2023-02-01T05:00:58.129Z,99752.52
2023-02-01T05:04:25.403Z,99752.70
2023-02-01T05:07:52.734Z,99755.95
2023-02-01T05:11:33.610Z,99759.08
2023-02-01T05:15:00.795Z,99757.41
2023-02-01T05:18:28.115Z,99757.23
2023-02-01T05:21:55.185Z,99748.23
2023-02-01T05:25:22.385Z,99750.50
2023-02-01T05:28:49.756Z,99752.95
2023-02-01T05:32:22.578Z,99749.66
2023-02-01T05:35:52.706Z,99751.38
2023-02-01T05:39:18.353Z,99752.91
2023-02-01T05:42:45.395Z,99750.94
2023-02-01T05:46:13.819Z,99739.71
2023-02-01T05:49:41.235Z,99745.93
2023-02-01T05:53:08.465Z,99748.84
2023-02-01T05:56:35.594Z,99752.75
2023-02-01T06:00:02.750Z,99753.25
2023-02-01T06:03:40.174Z,99755.11
2023-02-01T06:07:08.736Z,99756.45
2023-02-01T06:10:35.853Z,99761.08
2023-02-01T06:14:03.159Z,99760.16
2023-02-01T06:17:30.387Z,99753.45
2023-02-01T06:21:01.009Z,99758.63
2023-02-01T06:24:28.963Z,99762.77
2023-02-01T06:27:56.205Z,99758.28
2023-02-01T06:31:24.443Z,99755.35
2023-02-01T06:34:53.512Z,99758.54
2023-02-01T06:38:20.574Z,99758.25
2023-02-01T06:41:50.215Z,99753.30
2023-02-01T06:45:16.238Z,99762.69
2023-02-01T06:48:43.771Z,99766.52
2023-02-01T06:52:10.943Z,99773.83
2023-02-01T06:55:37.970Z,99774.54
2023-02-01T06:59:07.300Z,99770.77
2023-02-01T07:02:34.572Z,99766.33
2023-02-01T07:06:01.865Z,99772.40
2023-02-01T07:09:29.317Z,99772.81
2023-02-01T07:13:00.688Z,99777.36
2023-02-01T07:16:28.006Z,99775.74
2023-02-01T07:19:55.127Z,99782.08
2023-02-01T07:23:22.145Z,99781.21
2023-02-01T07:26:52.128Z,99786.23
2023-02-01T07:30:20.567Z,99786.06
2023-02-01T07:33:48.051Z,99787.80
2023-02-01T07:37:15.293Z,99787.16
2023-02-01T07:40:42.374Z,99785.48
2023-02-01T07:44:09.612Z,99783.83
2023-02-01T07:47:36.699Z,99779.94
2023-02-01T07:51:06.049Z,99776.14
2023-02-01T07:54:33.259Z,99777.99
2023-02-01T07:58:02.024Z,99782.18
2023-02-01T08:01:30.866Z,99776.11
2023-02-01T08:04:57.889Z,99773.00
2023-02-01T08:08:25.513Z,99774.43
2023-02-01T08:11:52.715Z,99769.16
2023-02-01T08:15:20.252Z,99768.33
2023-02-01T08:18:47.957Z,99770.70
2023-02-01T08:22:14.903Z,99762.00
2023-02-01T08:25:41.913Z,99758.05
2023-02-01T08:29:11.527Z,99757.68
2023-02-01T08:32:41.278Z,99755.04
2023-02-01T08:36:10.247Z,99759.70
2023-02-01T08:39:37.817Z,99749.90
2023-02-01T08:43:05.030Z,99745.95
2023-02-01T08:46:32.178Z,99739.02
2023-02-01T08:49:59.282Z,99737.72
2023-02-01T08:53:26.557Z,99735.77
2023-02-01T08:56:55.510Z,99735.40
2023-02-01T09:00:23.655Z,99724.83
2023-02-01T09:03:50.981Z,99731.41
2023-02-01T09:07:18.800Z,99733.40
2023-02-01T09:10:46.109Z,99740.41
2023-02-01T09:14:13.407Z,99744.09
2023-02-01T09:17:42.782Z,99749.34
2023-02-01T09:21:10.235Z,99754.01
2023-02-01T09:24:37.445Z,99754.11
2023-02-01T09:28:07.186Z,99750.66
2023-02-01T09:31:34.595Z,99743.13
2023-02-01T09:35:02.023Z,99750.64
2023-02-01T09:38:29.697Z,99742.24
2023-02-01T09:42:06.739Z,99744.70
2023-02-01T09:45:39.997Z,99741.55
2023-02-01T09:49:13.410Z,99740.04
2023-02-01T09:52:45.213Z,99743.45
2023-02-01T09:56:17.249Z,99739.14
2023-02-01T09:59:48.196Z,99736.30
2023-02-01T10:03:16.773Z,99735.79
2023-02-01T10:07:05.549Z,99733.50
2023-02-01T10:10:42.960Z,99732.54
2023-02-01T10:14:17.694Z,99734.02
2023-02-01T10:17:59.135Z,99728.38
2023-02-01T10:21:42.577Z,99727.08
2023-02-01T10:25:16.591Z,99723.23
2023-02-01T10:28:46.384Z,99719.02
2023-02-01T10:32:19.299Z,99708.99
2023-02-01T10:35:48.444Z,99708.85
2023-02-01T10:39:17.215Z,99701.77
2023-02-01T10:42:45.482Z,99701.63
2023-02-01T10:46:12.925Z,99697.13
2023-02-01T10:49:46.094Z,99702.05
2023-02-01T10:53:19.239Z,99695.90
2023-02-01T10:56:47.852Z,99692.15
2023-02-01T11:00:25.032Z,99693.55
2023-02-01T11:03:57.950Z,99689.87
2023-02-01T11:07:28.166Z,99689.96
2023-02-01T11:11:02.444Z,99678.19
2023-02-01T11:14:40.426Z,99680.70
2023-02-01T11:18:20.275Z,99684.30
2023-02-01T11:21:51.616Z,99682.38
2023-02-01T11:25:20.757Z,99680.88
2023-02-01T11:28:55.542Z,99681.89
2023-02-01T11:32:25.245Z,99682.59
2023-02-01T11:35:54.027Z,99679.83
2023-02-01T11:39:28.495Z,99675.11
2023-02-01T11:43:00.728Z,99670.04
2023-02-01T11:46:32.790Z,99662.57
2023-02-01T11:50:01.858Z,99659.77
2023-02-01T11:53:42.075Z,99658.82
2023-02-01T11:57:24.704Z,99649.79
2023-02-01T12:01:05.552Z,99647.38
2023-02-01T12:04:56.149Z,99649.98
2023-02-01T12:08:51.276Z,99652.30
2023-02-01T12:12:23.718Z,99655.90
2023-02-01T12:16:02.921Z,99647.23
2023-02-01T12:19:44.458Z,99654.94
2023-02-01T12:23:26.538Z,99662.23
2023-02-01T12:27:09.561Z,99664.88
2023-02-01T12:31:09.374Z,99666.33
2023-02-01T12:34:56.889Z,99664.98
2023-02-01T12:38:51.500Z,99659.19
2023-02-01T12:42:23.619Z,99656.61
2023-02-01T12:45:55.764Z,99664.42
2023-02-01T12:49:31.109Z,99661.86
2023-02-01T12:53:09.401Z,99657.09
2023-02-01T12:56:43.372Z,99659.48
2023-02-01T13:00:23.387Z,99663.95
2023-02-01T13:04:01.125Z,99673.79
2023-02-01T13:07:31.490Z,99674.00
2023-02-01T13:11:05.890Z,99674.87
2023-02-01T13:14:40.961Z,99671.30
2023-02-01T13:18:15.589Z,99673.02
2023-02-01T13:21:48.334Z,99670.52
2023-02-01T13:25:19.811Z,99669.67
2023-02-01T13:28:52.364Z,99665.72
2023-02-01T13:33:50.183Z,99670.14
2023-02-01T13:36:36.990Z,99671.66
2023-02-01T13:40:20.207Z,99674.50
2023-02-01T13:43:51.045Z,99672.96
2023-02-01T13:47:26.281Z,99674.94
2023-02-01T13:50:58.431Z,99665.45
2023-02-01T13:54:32.279Z,99663.95
2023-02-01T13:58:21.292Z,99662.02
2023-02-01T14:01:48.373Z,99660.38
2023-02-01T14:05:37.513Z,99662.16
2023-02-01T14:09:38.204Z,99666.94
2023-02-01T14:13:28.765Z,99662.40
2023-02-01T14:17:41.230Z,99653.94
2023-02-01T14:21:24.126Z,99652.02
2023-02-01T14:24:56.412Z,99650.20
2023-02-01T14:28:28.727Z,99649.73
2023-02-01T14:32:19.052Z,99653.58
2023-02-01T14:35:58.038Z,99651.27
2023-02-01T14:39:38.496Z,99644.95
2023-02-01T14:43:05.684Z,99649.20
2023-02-01T14:47:03.243Z,99641.13
2023-02-01T14:50:37.891Z,99649.25
2023-02-01T14:54:05.765Z,99649.33
2023-02-01T14:57:35.608Z,99649.91
2023-02-01T15:01:07.677Z,99642.55
2023-02-01T15:04:45.045Z,99638.36
2023-02-01T15:08:30.723Z,99637.09
2023-02-01T15:12:07.529Z,99651.09
2023-02-01T15:15:37.476Z,99652.77
2023-02-01T15:19:16.399Z,99655.70
2023-02-01T15:22:44.115Z,99658.30
2023-02-01T15:26:11.016Z,99657.28
2023-02-01T15:29:38.191Z,99652.79
2023-02-01T15:33:18.322Z,99655.39
2023-02-01T15:37:00.695Z,99653.13
2023-02-01T15:40:31.922Z,99654.52
2023-02-01T15:44:16.080Z,99644.31
2023-02-01T15:47:47.222Z,99649.97
2023-02-01T15:51:20.714Z,99647.08
2023-02-01T15:54:53.595Z,99651.45
2023-02-01T15:58:23.260Z,99644.70
2023-02-01T16:01:51.306Z,99647.05
2023-02-01T16:05:34.567Z,99648.00
2023-02-01T16:09:14.021Z,99650.30
2023-02-01T16:12:50.648Z,99654.86
2023-02-01T16:16:18.338Z,99660.92
2023-02-01T16:19:45.726Z,99663.91
2023-02-01T16:23:13.697Z,99660.64
2023-02-01T16:26:40.724Z,99658.48
2023-02-01T16:30:10.941Z,99657.86
2023-02-01T16:33:38.080Z,99656.92
2023-02-01T16:37:06.562Z,99656.90
2023-02-01T16:40:33.583Z,99649.71
2023-02-01T16:44:00.624Z,99644.46
2023-02-01T16:47:27.812Z,99638.59
2023-02-01T16:50:57.592Z,99645.84
2023-02-01T16:54:23.215Z,99651.80
2023-02-01T16:57:50.572Z,99655.14
2023-02-01T17:01:20.515Z,99652.08
2023-02-01T17:04:49.847Z,99648.77
2023-02-01T17:08:20.629Z,99646.52
2023-02-01T17:11:47.684Z,99643.77
2023-02-01T17:15:15.915Z,99640.30
2023-02-01T17:18:43.231Z,99642.05
2023-02-01T17:22:11.781Z,99639.79
2023-02-01T17:25:39.191Z,99632.95
2023-02-01T17:29:06.478Z,99632.80
2023-02-01T17:32:33.547Z,99634.02
2023-02-01T17:36:01.459Z,99639.19
2023-02-01T17:39:46.715Z,99641.62
2023-02-01T17:43:22.956Z,99639.69
2023-02-01T17:46:50.195Z,99636.02
2023-02-01T17:50:18.344Z,99626.20
2023-02-01T17:53:46.675Z,99614.29
2023-02-01T17:57:15.985Z,99608.63
2023-02-01T18:00:44.107Z,99596.64
2023-02-01T18:04:15.118Z,99607.77
2023-02-01T18:07:42.186Z,99614.48
2023-02-01T18:11:15.436Z,99613.98
2023-02-01T18:14:42.529Z,99600.91
2023-02-01T18:18:09.976Z,99597.88
2023-02-01T18:21:43.681Z,99593.59
2023-02-01T18:25:20.709Z,99581.02
2023-02-01T18:28:48.391Z,99571.21
2023-02-01T18:32:15.878Z,99561.72
2023-02-01T18:35:44.533Z,99554.11
2023-02-01T18:39:12.361Z,99558.38
2023-02-01T18:42:40.312Z,99559.35
2023-02-01T18:46:08.384Z,99553.63
2023-02-01T18:49:36.883Z,99554.27
2023-02-01T18:53:06.771Z,99550.65
2023-02-01T18:56:33.886Z,99547.38
2023-02-01T19:00:00.913Z,99542.10
2023-02-01T19:03:28.825Z,99540.14
2023-02-01T19:06:56.250Z,99535.61
2023-02-01T19:10:25.631Z,99530.93
2023-02-01T19:13:55.436Z,99530.09
2023-02-01T19:17:23.418Z,99528.80
2023-02-01T19:20:54.641Z,99523.84
2023-02-01T19:24:23.641Z,99521.88
2023-02-01T19:27:53.235Z,99527.86
2023-02-01T19:31:20.716Z,99525.21
2023-02-01T19:34:48.900Z,99526.95
2023-02-01T19:38:16.933Z,99528.96
2023-02-01T19:41:44.506Z,99527.89
2023-02-01T19:45:13.034Z,99530.81
2023-02-01T19:48:40.572Z,99532.20
2023-02-01T19:52:08.393Z,99532.56
2023-02-01T19:55:36.392Z,99530.83
2023-02-01T19:59:05.072Z,99538.42
2023-02-01T20:02:32.138Z,99535.31
2023-02-01T20:06:03.086Z,99538.23
2023-02-01T20:09:34.207Z,99543.86
2023-02-01T20:13:02.238Z,99544.72
2023-02-01T20:16:30.873Z,99558.38
2023-02-01T20:20:03.701Z,99558.72
2023-02-01T20:23:33.198Z,99560.63
2023-02-01T20:27:02.746Z,99561.48
2023-02-01T20:30:32.397Z,99558.91
2023-02-01T20:34:02.154Z,99562.39
2023-02-01T20:37:31.870Z,99562.77
2023-02-01T20:41:07.965Z,99561.08
2023-02-01T20:44:37.116Z,99559.11
2023-02-01T20:48:07.115Z,99563.97
2023-02-01T20:51:36.626Z,99563.50
2023-02-01T20:55:05.253Z,99567.50
2023-02-01T20:58:34.135Z,99569.25
2023-02-01T21:02:02.639Z,99566.84
2023-02-01T21:05:40.095Z,99569.48
2023-02-01T21:09:07.615Z,99573.98
2023-02-01T21:12:34.936Z,99576.96
2023-02-01T21:16:03.336Z,99582.90
2023-02-01T21:19:43.130Z,99585.04
2023-02-01T21:23:11.088Z,99594.05
2023-02-01T21:26:42.105Z,99597.17
2023-02-01T21:30:11.804Z,99599.23
2023-02-01T21:33:39.294Z,99596.19
2023-02-01T21:37:07.132Z,99599.14
2023-02-01T21:40:35.008Z,99605.70
2023-02-01T21:44:02.524Z,99612.08
2023-02-01T21:47:29.964Z,99611.90
2023-02-01T21:50:58.319Z,99617.42
2023-02-01T21:54:26.057Z,99618.12
2023-02-01T21:57:53.247Z,99621.73
2023-02-01T22:01:20.508Z,99627.98
2023-02-01T22:04:49.077Z,99622.16
2023-02-01T22:08:16.257Z,99623.94
2023-02-01T22:11:43.234Z,99626.04
2023-02-01T22:15:11.836Z,99628.44
2023-02-01T22:18:38.811Z,99633.48
2023-02-01T22:22:05.833Z,99637.99
2023-02-01T22:25:33.921Z,99635.30
2023-02-01T22:29:00.875Z,99641.86
2023-02-01T22:32:28.526Z,99637.07
2023-02-01T22:35:56.095Z,99638.83
2023-02-01T22:39:24.500Z,99640.72
2023-02-01T22:42:51.652Z,99640.40
2023-02-01T22:46:31.394Z,99647.17
2023-02-01T22:50:09.712Z,99650.47
2023-02-01T22:53:36.872Z,99646.84
2023-02-01T22:57:04.225Z,99642.02
2023-02-01T23:00:40.262Z,99637.21
2023-02-01T23:04:11.266Z,99639.98
2023-02-01T23:07:40.945Z,99644.17
2023-02-01T23:11:10.832Z,99645.79
2023-02-01T23:14:58.573Z,99650.52
2023-02-01T23:18:26.110Z,99647.67
2023-02-01T23:21:53.430Z,99643.04
2023-02-01T23:25:21.960Z,99645.89
2023-02-01T23:28:50.827Z,99643.87
2023-02-01T23:32:18.580Z,99638.98
2023-02-01T23:35:55.004Z,99638.90
2023-02-01T23:39:22.212Z,99637.75
2023-02-01T23:43:09.722Z,99636.91
2023-02-01T23:46:40.308Z,99637.11
2023-02-01T23:50:08.719Z,99636.65
2023-02-01T23:53:35.903Z,99632.89
2023-02-01T23:57:02.995Z,99627.91
